createdAt,value
2022-12-26T00:01:36.974Z,11.00
2022-12-26T00:06:23.833Z,10.90
2022-12-26T00:11:08.459Z,10.90
2022-12-26T00:15:55.816Z,10.90
2022-12-26T00:20:45.275Z,10.70
2022-12-26T00:25:34.460Z,10.80
2022-12-26T00:30:20.621Z,10.80
2022-12-26T00:35:14.204Z,11.00
2022-12-26T00:39:57.834Z,11.10
2022-12-26T00:44:46.287Z,11.10
2022-12-26T00:50:14.072Z,11.10
2022-12-26T00:54:36.710Z,11.20
2022-12-26T00:59:23.109Z,11.20
2022-12-26T01:04:15.880Z,11.30
2022-12-26T01:09:01.157Z,11.30
2022-12-26T01:13:50.756Z,11.30
2022-12-26T01:18:37.755Z,11.30
2022-12-26T01:23:25.237Z,11.40
2022-12-26T01:28:33.478Z,11.40
2022-12-26T01:33:17.076Z,11.50
2022-12-26T01:38:06.608Z,11.40
2022-12-26T01:42:56.747Z,11.60
2022-12-26T01:47:44.122Z,11.70
2022-12-26T01:52:34.358Z,11.70
2022-12-26T01:57:22.918Z,11.70
2022-12-26T02:02:08.137Z,11.80
2022-12-26T02:06:54.927Z,11.70
2022-12-26T02:11:44.360Z,11.70
2022-12-26T02:16:30.216Z,11.60
2022-12-26T02:21:34.036Z,11.50
2022-12-26T02:26:40.623Z,11.50
2022-12-26T02:31:43.915Z,11.40
2022-12-26T02:37:00.257Z,11.30
2022-12-26T02:42:10.424Z,11.30
2022-12-26T02:47:12.916Z,11.30
2022-12-26T02:52:25.757Z,11.40
2022-12-26T02:57:30.945Z,11.40
2022-12-26T03:02:50.828Z,11.50
2022-12-26T03:07:57.635Z,11.50
2022-12-26T03:13:03.033Z,11.50
2022-12-26T03:17:55.249Z,11.40
2022-12-26T03:22:41.265Z,11.40
2022-12-26T03:27:24.836Z,11.40
2022-12-26T03:32:12.174Z,11.30
2022-12-26T03:37:20.644Z,11.40
2022-12-26T03:42:26.776Z,11.40
2022-12-26T03:47:37.835Z,11.50
2022-12-26T03:52:50.751Z,11.60
2022-12-26T03:58:00.933Z,11.70
2022-12-26T04:03:12.670Z,11.60
2022-12-26T04:08:26.569Z,11.60
2022-12-26T04:13:32.492Z,11.50
2022-12-26T04:18:49.855Z,11.50
2022-12-26T04:24:11.861Z,11.50
2022-12-26T04:29:19.560Z,11.50
2022-12-26T04:34:34.880Z,11.60
2022-12-26T04:39:56.195Z,11.60
2022-12-26T04:44:47.128Z,11.70
2022-12-26T04:50:20.413Z,11.80
2022-12-26T04:55:12.653Z,11.60
2022-12-26T04:59:59.053Z,11.50
2022-12-26T05:05:01.993Z,11.50
2022-12-26T05:09:51.176Z,11.50
2022-12-26T05:14:38.453Z,11.50
2022-12-26T05:19:42.793Z,11.70
2022-12-26T05:24:55.886Z,11.50
2022-12-26T05:29:53.367Z,11.60
2022-12-26T05:34:36.867Z,11.60
2022-12-26T05:39:25.581Z,11.70
2022-12-26T05:44:15.042Z,11.70
2022-12-26T05:49:02.681Z,11.80
2022-12-26T05:53:48.424Z,11.70
2022-12-26T05:58:41.134Z,11.60
2022-12-26T06:03:24.594Z,11.60
2022-12-26T06:08:17.097Z,11.50
2022-12-26T06:13:02.291Z,11.40
2022-12-26T06:17:48.984Z,11.50
2022-12-26T06:22:38.567Z,11.50
2022-12-26T06:27:26.904Z,11.40
2022-12-26T06:32:13.486Z,11.50
2022-12-26T06:37:02.812Z,11.40
2022-12-26T06:41:49.393Z,11.50
2022-12-26T06:46:36.719Z,11.50
2022-12-26T06:51:28.582Z,11.50
2022-12-26T06:56:16.722Z,11.70
2022-12-26T07:01:06.351Z,11.60
2022-12-26T07:05:51.399Z,11.40
2022-12-26T07:10:37.266Z,11.40
2022-12-26T07:15:26.702Z,11.30
2022-12-26T07:20:13.812Z,11.30
2022-12-26T07:25:01.106Z,11.20
2022-12-26T07:29:49.616Z,11.30
2022-12-26T07:34:36.108Z,11.20
2022-12-26T07:39:25.029Z,11.20
2022-12-26T07:44:17.418Z,11.10
2022-12-26T07:49:00.963Z,11.20
2022-12-26T07:53:53.544Z,11.10
2022-12-26T07:58:36.979Z,11.10
2022-12-26T08:03:26.191Z,11.20
2022-12-26T08:08:15.151Z,11.20
2022-12-26T08:13:00.598Z,11.20
2022-12-26T08:17:53.143Z,11.30
2022-12-26T08:22:38.121Z,11.50
2022-12-26T08:27:24.634Z,11.80
2022-12-26T08:32:14.110Z,12.00
2022-12-26T08:37:04.079Z,12.00
2022-12-26T08:41:49.053Z,12.00
2022-12-26T08:46:41.883Z,12.00
2022-12-26T08:51:26.795Z,11.90
2022-12-26T08:57:00.852Z,12.00
2022-12-26T09:01:50.338Z,12.00
2022-12-26T09:06:41.548Z,12.00
2022-12-26T09:11:27.692Z,12.00
2022-12-26T09:16:17.970Z,12.00
2022-12-26T09:21:03.916Z,12.10
2022-12-26T09:25:52.346Z,12.40
2022-12-26T09:30:38.485Z,12.60
2022-12-26T09:35:27.945Z,13.10
2022-12-26T09:40:34.184Z,13.50
2022-12-26T09:45:19.795Z,13.40
2022-12-26T09:50:19.514Z,13.20
2022-12-26T09:55:40.079Z,13.10
2022-12-26T10:00:47.108Z,12.70
2022-12-26T10:05:48.124Z,12.70
2022-12-26T10:11:00.098Z,12.50
2022-12-26T10:16:31.815Z,12.40
2022-12-26T10:21:37.611Z,12.40
2022-12-26T10:26:25.440Z,12.20
2022-12-26T10:31:25.383Z,11.90
2022-12-26T10:36:32.684Z,11.90
2022-12-26T10:41:21.979Z,12.00
2022-12-26T10:46:41.284Z,12.10
2022-12-26T10:51:26.928Z,12.10
2022-12-26T10:56:16.487Z,12.20
2022-12-26T11:01:32.699Z,12.20
2022-12-26T11:06:39.934Z,12.40
2022-12-26T11:11:26.541Z,12.50
2022-12-26T11:16:15.029Z,12.50
2022-12-26T11:21:33.226Z,12.70
2022-12-26T11:26:25.151Z,12.70
2022-12-26T11:31:27.008Z,12.80
2022-12-26T11:36:29.328Z,12.80
2022-12-26T11:41:50.630Z,12.90
2022-12-26T11:46:41.881Z,12.90
2022-12-26T11:51:44.093Z,12.80
2022-12-26T11:56:30.397Z,12.60
2022-12-26T12:01:20.696Z,12.50
2022-12-26T12:06:25.634Z,12.50
2022-12-26T12:17:02.292Z,12.20
2022-12-26T12:22:25.797Z,12.10
2022-12-26T12:27:25.607Z,11.90
2022-12-26T12:32:19.626Z,11.70
2022-12-26T12:37:23.239Z,11.80
2022-12-26T12:42:36.094Z,11.80
2022-12-26T12:47:41.357Z,11.80
2022-12-26T12:52:46.624Z,11.80
2022-12-26T12:57:51.719Z,11.60
2022-12-26T13:02:53.688Z,11.70
2022-12-26T13:07:47.658Z,11.60
2022-12-26T13:12:44.629Z,10.90
2022-12-26T13:18:05.390Z,9.50
2022-12-26T13:23:24.083Z,8.90
2022-12-26T13:28:18.968Z,8.70
2022-12-26T13:33:04.104Z,8.70
2022-12-26T13:38:03.518Z,8.80
2022-12-26T13:43:16.004Z,8.90
2022-12-26T13:48:48.411Z,9.00
2022-12-26T13:53:48.043Z,9.00
2022-12-26T13:58:56.288Z,9.10
2022-12-26T14:04:11.088Z,9.00
2022-12-26T14:09:21.946Z,8.90
2022-12-26T14:14:19.182Z,8.90
2022-12-26T14:19:23.940Z,9.00
2022-12-26T14:24:32.613Z,9.00
2022-12-26T14:29:32.915Z,9.00
2022-12-26T14:34:36.481Z,8.90
2022-12-26T14:39:45.604Z,8.90
2022-12-26T14:44:45.395Z,8.90
2022-12-26T14:49:48.761Z,8.90
2022-12-26T14:54:52.994Z,8.90
2022-12-26T15:00:15.723Z,8.90
2022-12-26T15:05:16.963Z,8.90
2022-12-26T15:10:41.322Z,8.80
2022-12-26T15:15:42.312Z,8.80
2022-12-26T15:21:02.281Z,8.70
2022-12-26T15:26:27.890Z,8.50
2022-12-26T15:31:45.570Z,8.40
2022-12-26T15:36:44.727Z,8.40
2022-12-26T15:41:48.356Z,8.40
2022-12-26T15:47:11.636Z,8.40
2022-12-26T15:52:15.560Z,8.30
2022-12-26T15:57:34.376Z,8.30
2022-12-26T16:02:39.799Z,8.30
2022-12-26T16:07:55.275Z,8.30
2022-12-26T16:18:38.152Z,8.30
2022-12-26T16:23:28.648Z,8.20
2022-12-26T16:28:13.789Z,8.10
2022-12-26T16:33:01.299Z,8.20
2022-12-26T16:37:49.928Z,8.10
2022-12-26T16:42:42.098Z,8.10
2022-12-26T16:47:25.983Z,8.20
2022-12-26T16:52:39.284Z,8.10
2022-12-26T16:57:36.829Z,8.10
2022-12-26T17:02:23.894Z,8.00
2022-12-26T17:07:24.278Z,8.20
2022-12-26T17:12:31.676Z,8.30
2022-12-26T17:17:37.047Z,8.40
2022-12-26T17:22:35.928Z,8.50
2022-12-26T17:27:45.267Z,8.60
2022-12-26T17:32:45.644Z,8.80
2022-12-26T17:37:37.502Z,8.90
2022-12-26T17:42:21.121Z,9.00
2022-12-26T17:47:30.571Z,9.10
2022-12-26T17:52:34.432Z,9.10
2022-12-26T17:57:33.701Z,9.20
2022-12-26T18:02:24.434Z,9.20
2022-12-26T18:07:13.293Z,9.20
2022-12-26T18:11:58.163Z,9.20
2022-12-26T18:16:44.650Z,9.20
2022-12-26T18:21:34.033Z,9.20
2022-12-26T18:26:42.627Z,9.30
2022-12-26T18:31:42.695Z,9.30
2022-12-26T18:36:32.815Z,9.30
2022-12-26T18:41:18.983Z,9.40
2022-12-26T18:46:06.323Z,9.30
2022-12-26T18:50:54.386Z,9.20
2022-12-26T18:55:43.550Z,9.40
2022-12-26T19:00:31.593Z,9.10
2022-12-26T19:05:20.942Z,8.90
2022-12-26T19:10:06.761Z,8.60
2022-12-26T19:14:52.895Z,8.40
2022-12-26T19:19:42.834Z,8.30
2022-12-26T19:24:30.501Z,8.30
2022-12-26T19:29:21.799Z,8.20
2022-12-26T19:34:52.330Z,8.20
2022-12-26T19:40:03.264Z,8.30
2022-12-26T19:45:23.716Z,8.10
2022-12-26T19:50:37.823Z,8.10
2022-12-26T19:55:24.143Z,8.10
2022-12-26T20:00:14.094Z,8.10
2022-12-26T20:05:00.906Z,8.20
2022-12-26T20:09:50.181Z,8.20
2022-12-26T20:14:39.657Z,8.30
2022-12-26T20:19:41.495Z,8.30
2022-12-26T20:24:30.853Z,8.20
2022-12-26T20:29:19.636Z,8.10
2022-12-26T20:34:08.143Z,7.80
2022-12-26T20:38:59.730Z,7.60
2022-12-26T20:44:14.896Z,7.60
2022-12-26T20:49:02.591Z,7.40
2022-12-26T20:53:52.349Z,7.20
2022-12-26T20:58:53.479Z,7.20
2022-12-26T21:03:41.920Z,6.90
2022-12-26T21:08:28.695Z,6.80
2022-12-26T21:13:37.291Z,6.70
2022-12-26T21:18:51.747Z,6.90
2022-12-26T21:23:38.272Z,6.80
2022-12-26T21:28:27.119Z,6.70
2022-12-26T21:33:16.401Z,6.70
2022-12-26T21:38:19.818Z,6.60
2022-12-26T21:43:30.520Z,6.40
2022-12-26T21:48:17.243Z,6.20
2022-12-26T21:53:01.338Z,6.00
2022-12-26T21:58:27.627Z,5.80
2022-12-26T22:08:49.631Z,5.40
2022-12-26T22:13:52.423Z,5.10
2022-12-26T22:18:41.000Z,4.90
2022-12-26T22:23:59.120Z,4.80
2022-12-26T22:28:46.405Z,4.40
2022-12-26T22:33:33.535Z,4.20
2022-12-26T22:38:38.617Z,4.20
2022-12-26T22:43:27.946Z,4.20
2022-12-26T22:48:14.683Z,4.20
2022-12-26T22:53:06.409Z,4.20
2022-12-26T22:57:52.771Z,4.10
2022-12-26T23:02:53.903Z,4.00
2022-12-26T23:07:41.085Z,4.00
2022-12-26T23:12:50.628Z,3.90
2022-12-26T23:17:57.846Z,3.80
2022-12-26T23:22:56.281Z,3.70
2022-12-26T23:27:58.979Z,3.50
2022-12-26T23:32:48.949Z,3.50
2022-12-26T23:37:33.416Z,3.40
2022-12-26T23:42:22.094Z,3.30
2022-12-26T23:47:08.902Z,3.20
2022-12-26T23:52:10.241Z,3.30
2022-12-26T23:56:59.207Z,3.20
